Time;durP1;ratioP1;P1;durP2;ratioP2;P2;SDS_P1;SDS_P2;PMS_P1;PMS_P2;Temp;Humidity;BMP_temperature;BMP_pressure;BME280_temperature;BME280_humidity;BME280_pressure;Samples;Min_cycle;Max_cycle;Signal;HPM_P1;HPM_P2
2024/01/06 00:01:01;;;;;;;44.57;27.63;;;2.90;94.80;;;;;;8237441;28;20233;-80
2024/01/06 00:05:02;;;;;;;40.97;24.33;;;2.90;99.90;;;;;;8236573;28;20186;-80
2024/01/06 00:09:03;;;;;;;45.67;29.37;;;2.90;99.90;;;;;;8234840;28;20186;-80
2024/01/06 00:13:04;;;;;;;60.63;34.27;;;2.90;99.90;;;;;;8236320;28;20185;-80
2024/01/06 00:17:05;;;;;;;54.30;31.30;;;2.80;99.90;;;;;;8233468;28;20239;-80
2024/01/06 00:21:05;;;;;;;42.20;26.07;;;2.90;99.90;;;;;;8231766;28;20546;-80
2024/01/06 00:25:09;;;;;;;45.83;29.93;;;2.80;99.90;;;;;;8229033;28;20237;-80
2024/01/06 00:29:13;;;;;;;47.07;28.17;;;2.80;99.90;;;;;;8232253;28;20205;-81
2024/01/06 00:33:16;;;;;;;42.70;26.90;;;2.80;99.90;;;;;;8245352;28;20196;-81
2024/01/06 00:37:17;;;;;;;51.33;29.50;;;2.70;99.90;;;;;;8250532;28;20220;-81
2024/01/06 00:41:18;;;;;;;57.77;33.03;;;2.70;99.90;;;;;;8243875;28;20176;-81
2024/01/06 00:45:18;;;;;;;49.27;29.90;;;2.70;1.00;;;;;;8243558;28;20278;-81
2024/01/06 00:49:19;;;;;;;39.67;24.40;;;2.60;1.00;;;;;;8239308;28;20209;-81
2024/01/06 00:53:21;;;;;;;31.13;21.40;;;2.60;51.10;;;;;;8255159;28;20196;-81
2024/01/06 00:57:24;;;;;;;36.77;22.97;;;2.60;99.90;;;;;;8237688;28;20481;-81
2024/01/06 01:01:24;;;;;;;38.37;23.80;;;2.50;99.90;;;;;;8239406;28;20291;-81
2024/01/06 01:05:25;;;;;;;51.03;27.63;;;2.50;99.90;;;;;;8235635;28;20194;-81
2024/01/06 01:09:26;;;;;;;49.13;26.20;;;2.60;99.90;;;;;;8239238;28;20211;-81
2024/01/06 01:13:30;;;;;;;39.40;23.03;;;2.50;99.90;;;;;;8235447;28;20196;-81
2024/01/06 01:17:31;;;;;;;47.23;28.50;;;2.50;1.00;;;;;;8237284;28;20224;-82
2024/01/06 01:21:31;;;;;;;46.80;29.03;;;2.60;1.00;;;;;;8252654;28;20252;-82
2024/01/06 01:25:32;;;;;;;44.17;25.23;;;2.60;99.90;;;;;;8234284;28;20183;-82
2024/01/06 01:29:33;;;;;;;43.80;25.80;;;2.60;99.90;;;;;;8258791;28;20195;-82
2024/01/06 01:33:34;;;;;;;41.47;26.90;;;2.60;1.00;;;;;;8250425;28;20236;-82
2024/01/06 01:37:35;;;;;;;41.37;26.30;;;2.50;1.00;;;;;;8249269;28;20215;-80
2024/01/06 01:41:35;;;;;;;39.60;24.47;;;2.50;1.00;;;;;;8250751;28;20262;-80
2024/01/06 01:45:36;;;;;;;45.90;25.57;;;2.50;1.00;;;;;;8231972;28;20195;-79
2024/01/06 01:49:38;;;;;;;46.03;28.03;;;2.50;1.00;;;;;;8235791;28;20319;-80
2024/01/06 01:53:39;;;;;;;43.50;27.70;;;2.50;1.00;;;;;;8237174;28;20183;-79
2024/01/06 01:57:42;;;;;;;49.83;27.23;;;2.50;1.00;;;;;;8252556;28;20303;-80
2024/01/06 02:01:43;;;;;;;47.10;28.50;;;2.50;1.00;;;;;;8251345;28;20224;-80
2024/01/06 02:05:44;;;;;;;43.80;27.37;;;2.50;1.00;;;;;;8251703;28;20202;-80
2024/01/06 02:09:44;;;;;;;39.93;24.90;;;2.50;1.00;;;;;;8231968;28;20228;-80
2024/01/06 02:13:45;;;;;;;39.93;24.30;;;2.40;99.90;;;;;;8234603;28;20195;-80
2024/01/06 02:17:46;;;;;;;42.80;25.43;;;2.40;99.90;;;;;;8234722;28;20216;-80
2024/01/06 02:21:53;;;;;;;45.47;25.50;;;2.30;99.90;;;;;;8235786;28;20200;-81
2024/01/06 02:25:55;;;;;;;38.80;24.80;;;2.30;99.90;;;;;;8237666;28;20184;-81
2024/01/06 02:29:56;;;;;;;46.93;28.17;;;2.30;99.90;;;;;;8239463;28;20187;-80
2024/01/06 02:33:56;;;;;;;45.77;28.27;;;2.30;1.00;;;;;;8253682;28;20188;-80
2024/01/06 02:37:57;;;;;;;42.77;25.70;;;2.30;99.90;;;;;;8256106;28;20279;-79
2024/01/06 02:41:58;;;;;;;46.50;27.00;;;2.20;99.90;;;;;;8279896;28;20203;-81
2024/01/06 02:45:59;;;;;;;41.77;25.90;;;2.10;99.90;;;;;;8277989;28;20184;-81
2024/01/06 02:50:00;;;;;;;43.30;26.13;;;2.10;1.00;;;;;;8291109;28;20180;-81
2024/01/06 02:54:03;;;;;;;42.27;25.20;;;2.10;1.00;;;;;;8275369;28;20172;-79
2024/01/06 02:58:09;;;;;;;42.27;27.40;;;2.00;15.00;;;;;;8241952;28;20221;-80
2024/01/06 03:02:11;;;;;;;47.67;29.00;;;2.00;99.90;;;;;;8239502;28;20238;-80
2024/01/06 03:06:12;;;;;;;46.50;27.97;;;2.00;99.90;;;;;;8252801;28;20203;-80
2024/01/06 03:10:13;;;;;;;53.40;30.13;;;2.00;99.90;;;;;;8257766;28;20188;-80
2024/01/06 03:14:14;;;;;;;46.17;28.80;;;2.00;99.90;;;;;;8237990;28;20185;-79
2024/01/06 03:18:18;;;;;;;48.83;28.33;;;2.00;99.90;;;;;;8254687;28;20438;-80
2024/01/06 03:22:18;;;;;;;46.77;28.10;;;1.90;99.90;;;;;;8253198;28;20188;-80
2024/01/06 03:26:19;;;;;;;55.77;32.90;;;1.90;99.90;;;;;;8230527;28;20247;-80
2024/01/06 03:30:23;;;;;;;45.97;29.23;;;1.90;1.00;;;;;;8235873;28;20184;-80
2024/01/06 03:34:23;;;;;;;44.83;27.20;;;1.90;1.00;;;;;;8230298;28;20191;-80
2024/01/06 03:38:24;;;;;;;47.53;28.53;;;1.80;99.90;;;;;;8238991;28;20222;-80
2024/01/06 03:42:25;;;;;;;49.10;27.23;;;1.90;99.90;;;;;;8233679;28;20200;-80
2024/01/06 03:46:26;;;;;;;41.00;24.97;;;1.90;90.50;;;;;;8231534;28;20267;-80
2024/01/06 03:50:26;;;;;;;37.67;23.57;;;1.80;1.00;;;;;;8251815;28;20362;-80
2024/01/06 03:54:27;;;;;;;36.30;23.03;;;1.80;1.00;;;;;;8236413;28;20522;-81
2024/01/06 03:58:28;;;;;;;40.93;23.67;;;1.80;92.30;;;;;;8231101;28;20283;-80
2024/01/06 04:02:28;;;;;;;39.30;23.77;;;1.80;99.90;;;;;;8232619;28;20296;-80
2024/01/06 04:06:31;;;;;;;46.83;26.23;;;1.80;1.00;;;;;;8248244;28;20206;-79
2024/01/06 04:10:32;;;;;;;44.33;24.47;;;1.90;1.00;;;;;;8233986;28;20187;-81
2024/01/06 04:14:33;;;;;;;46.33;25.73;;;1.90;75.60;;;;;;8251348;28;20219;-79
2024/01/06 04:18:34;;;;;;;44.53;25.93;;;1.90;1.00;;;;;;8248420;28;20215;-79
2024/01/06 04:22:34;;;;;;;36.77;23.53;;;1.90;38.80;;;;;;8241425;28;20293;-80
2024/01/06 04:26:35;;;;;;;38.90;23.33;;;1.90;99.90;;;;;;8239262;28;20254;-80
2024/01/06 04:30:36;;;;;;;38.10;23.20;;;1.90;99.90;;;;;;8252390;28;20526;-80
2024/01/06 04:34:36;;;;;;;51.30;29.17;;;1.90;99.90;;;;;;8240145;28;20218;-80
2024/01/06 04:38:37;;;;;;;51.30;31.67;;;1.90;99.90;;;;;;8235484;28;20231;-80
2024/01/06 04:42:41;;;;;;;51.87;30.53;;;1.90;93.80;;;;;;8243259;28;20267;-79
2024/01/06 04:46:42;;;;;;;52.10;30.60;;;1.90;25.20;;;;;;8254201;28;20278;-80
2024/01/06 04:50:44;;;;;;;46.20;27.70;;;1.90;1.00;;;;;;8233602;28;20199;-79
2024/01/06 04:54:45;;;;;;;44.73;25.93;;;2.00;1.00;;;;;;8256077;28;20200;-79
2024/01/06 04:58:45;;;;;;;37.50;24.23;;;2.00;1.00;;;;;;8235502;28;20335;-80
2024/01/06 05:02:49;;;;;;;43.43;25.43;;;2.00;1.00;;;;;;8240220;28;20318;-80
2024/01/06 05:06:56;;;;;;;39.27;23.97;;;2.00;1.00;;;;;;8239283;28;20203;-80
2024/01/06 05:11:02;;;;;;;32.07;20.00;;;2.00;1.00;;;;;;8235993;28;20278;-80
2024/01/06 05:15:03;;;;;;;31.73;18.53;;;2.00;99.90;;;;;;8249520;28;20255;-80
2024/01/06 05:19:04;;;;;;;33.00;18.87;;;2.00;99.90;;;;;;8241436;28;20512;-80
2024/01/06 05:23:05;;;;;;;36.07;19.93;;;1.90;99.90;;;;;;8255125;28;20203;-79
2024/01/06 05:27:06;;;;;;;35.40;19.67;;;1.90;99.90;;;;;;8257466;28;20191;-79
2024/01/06 05:31:06;;;;;;;29.20;18.13;;;1.90;99.90;;;;;;8251519;28;20188;-80
2024/01/06 05:35:07;;;;;;;32.43;19.83;;;1.80;99.90;;;;;;8238461;28;20195;-80
2024/01/06 05:39:08;;;;;;;36.97;20.20;;;1.70;99.90;;;;;;8240090;28;20184;-79
2024/01/06 05:43:09;;;;;;;36.03;22.30;;;1.70;99.90;;;;;;8245413;28;20215;-80
2024/01/06 05:47:13;;;;;;;40.47;25.77;;;1.70;99.90;;;;;;8280557;28;20184;-81
2024/01/06 05:51:14;;;;;;;38.33;24.77;;;1.70;1.00;;;;;;8264102;28;20188;-78
2024/01/06 05:55:15;;;;;;;48.20;26.03;;;1.60;1.00;;;;;;8264640;28;20396;-78
2024/01/06 05:59:16;;;;;;;52.97;26.47;;;1.70;1.00;;;;;;8267058;28;20254;-81
2024/01/06 06:03:17;;;;;;;48.23;27.07;;;1.70;1.00;;;;;;8253845;28;20195;-80
2024/01/06 06:07:18;;;;;;;46.30;23.23;;;1.70;1.00;;;;;;8238165;28;20211;-80
2024/01/06 06:11:19;;;;;;;38.17;21.60;;;1.70;1.00;;;;;;8235533;28;20207;-80
2024/01/06 06:15:23;;;;;;;44.77;25.17;;;1.70;1.00;;;;;;8234629;28;20211;-80
2024/01/06 06:19:23;;;;;;;64.63;30.33;;;1.70;1.00;;;;;;8253125;28;20202;-82
2024/01/06 06:23:24;;;;;;;62.23;33.80;;;1.70;99.90;;;;;;8250833;28;20215;-82
2024/01/06 06:27:26;;;;;;;108.20;58.83;;;1.70;99.90;;;;;;8238639;28;20207;-82
2024/01/06 06:31:27;;;;;;;70.97;41.90;;;1.70;99.90;;;;;;8237570;28;20196;-82
2024/01/06 06:35:31;;;;;;;50.30;29.73;;;1.70;99.90;;;;;;8229993;28;20283;-82
2024/01/06 06:39:34;;;;;;;64.83;35.40;;;1.70;99.90;;;;;;8241312;28;20288;-82
2024/01/06 06:43:37;;;;;;;56.40;32.13;;;1.70;99.90;;;;;;8237266;28;20188;-82
2024/01/06 06:47:38;;;;;;;48.20;23.97;;;1.70;99.90;;;;;;8248113;28;20290;-82
2024/01/06 06:51:46;;;;;;;39.10;22.53;;;1.70;99.90;;;;;;8235278;28;20232;-83
2024/01/06 06:55:47;;;;;;;55.23;29.47;;;1.80;99.90;;;;;;8235433;28;20200;-82
2024/01/06 06:59:47;;;;;;;47.33;24.70;;;1.80;99.90;;;;;;8253120;28;20188;-82
2024/01/06 07:03:48;;;;;;;51.90;28.10;;;1.80;99.90;;;;;;8234429;28;20199;-82
2024/01/06 07:07:49;;;;;;;74.47;37.03;;;1.80;99.90;;;;;;8229290;28;20192;-81
2024/01/06 07:11:50;;;;;;;59.10;30.73;;;1.80;99.90;;;;;;8232215;28;20199;-82
2024/01/06 07:15:51;;;;;;;47.77;26.50;;;1.80;99.90;;;;;;8231796;28;20265;-82
2024/01/06 07:19:53;;;;;;;35.77;22.20;;;1.80;99.90;;;;;;8230480;28;20195;-82
2024/01/06 07:23:54;;;;;;;55.13;33.60;;;1.80;99.90;;;;;;8249602;28;20245;-82
2024/01/06 07:27:56;;;;;;;45.70;26.90;;;1.70;99.90;;;;;;8241764;28;20492;-80
2024/01/06 07:31:57;;;;;;;42.13;23.97;;;1.70;99.90;;;;;;8243492;28;20188;-80
2024/01/06 07:35:58;;;;;;;44.73;23.43;;;1.80;99.90;;;;;;8251875;28;20248;-80
2024/01/06 07:39:58;;;;;;;52.53;28.17;;;1.80;99.90;;;;;;8253762;28;20207;-79
2024/01/06 07:44:00;;;;;;;44.43;27.33;;;1.70;99.90;;;;;;8230337;28;20184;-79
2024/01/06 07:48:01;;;;;;;40.53;23.37;;;1.80;99.90;;;;;;8229960;28;20195;-81
2024/01/06 07:52:02;;;;;;;41.77;26.83;;;1.80;99.90;;;;;;8231789;28;20222;-81
2024/01/06 07:56:06;;;;;;;57.90;40.17;;;1.90;99.90;;;;;;8228047;28;20519;-81
2024/01/06 08:00:07;;;;;;;56.43;38.17;;;1.90;99.90;;;;;;8244931;28;20242;-81
2024/01/06 08:04:08;;;;;;;33.87;19.80;;;1.90;99.90;;;;;;8249103;28;20278;-81
2024/01/06 08:08:09;;;;;;;32.63;19.57;;;1.90;99.90;;;;;;8233191;28;20192;-81
2024/01/06 08:12:10;;;;;;;51.97;29.27;;;1.90;99.90;;;;;;8233599;28;20351;-80
2024/01/06 08:16:12;;;;;;;41.10;25.73;;;2.00;99.90;;;;;;8230374;28;20203;-80
2024/01/06 08:20:13;;;;;;;42.80;24.27;;;2.00;99.90;;;;;;8250192;28;20188;-80
2024/01/06 08:24:14;;;;;;;41.47;23.60;;;2.00;99.90;;;;;;8248032;28;20180;-81
2024/01/06 08:28:16;;;;;;;41.90;25.33;;;2.00;99.90;;;;;;8251584;28;20180;-79
2024/01/06 08:32:16;;;;;;;39.77;24.53;;;2.00;99.90;;;;;;8226768;28;20231;-80
2024/01/06 08:36:18;;;;;;;44.17;25.50;;;2.00;99.90;;;;;;8233493;28;20227;-80
2024/01/06 08:40:21;;;;;;;57.20;32.47;;;2.00;99.90;;;;;;8245283;28;20195;-82
2024/01/06 08:44:31;;;;;;;66.23;40.70;;;2.00;99.90;;;;;;8282053;28;20177;-83
2024/01/06 08:48:35;;;;;;;55.93;35.77;;;2.00;99.90;;;;;;8279489;28;20192;-82
2024/01/06 08:52:37;;;;;;;42.43;29.97;;;1.90;99.90;;;;;;8280660;28;20203;-83
2024/01/06 08:56:38;;;;;;;44.93;25.20;;;1.90;99.90;;;;;;8273669;28;20207;-83
2024/01/06 09:00:39;;;;;;;50.00;28.83;;;1.90;99.90;;;;;;8247197;28;20214;-82
2024/01/06 09:04:39;;;;;;;73.40;39.00;;;2.00;99.90;;;;;;8256582;28;20227;-82
2024/01/06 09:08:47;;;;;;;68.53;33.43;;;2.00;99.90;;;;;;8242982;28;20188;-82
2024/01/06 09:12:50;;;;;;;59.83;34.93;;;2.10;99.90;;;;;;8247845;28;20186;-82
2024/01/06 09:16:51;;;;;;;55.40;30.73;;;2.10;99.90;;;;;;8253817;28;20211;-82
2024/01/06 09:20:52;;;;;;;48.27;26.50;;;2.10;98.20;;;;;;8252374;28;20326;-82
2024/01/06 09:24:56;;;;;;;49.70;29.10;;;2.10;92.20;;;;;;8239244;28;20184;-82
2024/01/06 09:28:57;;;;;;;44.20;27.57;;;2.10;92.40;;;;;;8259874;28;20277;-82
2024/01/06 09:32:58;;;;;;;51.50;28.67;;;2.10;90.50;;;;;;8252655;28;20215;-82
2024/01/06 09:36:59;;;;;;;43.43;27.97;;;2.20;90.10;;;;;;8235873;28;20211;-82
2024/01/06 09:41:00;;;;;;;50.47;27.67;;;2.20;73.00;;;;;;8255530;28;20199;-82
2024/01/06 09:45:04;;;;;;;49.67;29.57;;;2.30;72.60;;;;;;8244261;28;20522;-82
2024/01/06 09:49:06;;;;;;;48.10;28.50;;;2.30;64.00;;;;;;8235297;28;20195;-80
2024/01/06 09:53:11;;;;;;;51.67;30.60;;;2.40;60.60;;;;;;8236932;28;20191;-80
2024/01/06 09:57:12;;;;;;;52.17;32.23;;;2.40;57.10;;;;;;8236989;28;20301;-80
2024/01/06 10:01:17;;;;;;;49.10;29.40;;;2.40;52.00;;;;;;8239040;28;20352;-81
2024/01/06 10:05:18;;;;;;;45.60;27.90;;;2.30;43.10;;;;;;8241705;28;20224;-81
2024/01/06 10:09:27;;;;;;;53.60;32.30;;;2.30;41.70;;;;;;8254128;28;20188;-80
2024/01/06 10:13:28;;;;;;;44.40;25.40;;;2.20;39.20;;;;;;8262272;28;20192;-81
2024/01/06 10:17:29;;;;;;;45.57;28.20;;;2.10;41.00;;;;;;8235152;28;20243;-82
2024/01/06 10:21:32;;;;;;;54.53;31.43;;;2.10;41.90;;;;;;8236380;28;20192;-81
2024/01/06 10:25:33;;;;;;;56.37;30.10;;;2.10;44.40;;;;;;8239531;28;20188;-82
2024/01/06 10:29:34;;;;;;;57.17;31.70;;;2.10;41.20;;;;;;8239486;28;20274;-81
2024/01/06 10:33:35;;;;;;;47.73;27.87;;;2.10;40.80;;;;;;8251184;28;20257;-81
2024/01/06 10:37:37;;;;;;;62.70;36.30;;;2.20;37.80;;;;;;8237930;28;20216;-81
2024/01/06 10:41:42;;;;;;;53.43;31.97;;;2.20;36.10;;;;;;8241687;28;20211;-80
2024/01/06 10:45:43;;;;;;;45.47;28.30;;;2.10;38.10;;;;;;8239023;28;20192;-80
2024/01/06 10:49:44;;;;;;;51.67;28.50;;;2.20;35.50;;;;;;8254249;28;20315;-82
2024/01/06 10:53:48;;;;;;;43.50;27.13;;;2.20;32.00;;;;;;8263117;28;20203;-80
2024/01/06 10:57:51;;;;;;;57.43;34.37;;;2.20;29.90;;;;;;8247067;28;20204;-81
2024/01/06 11:01:53;;;;;;;52.87;31.40;;;2.20;30.90;;;;;;8240858;28;20203;-82
2024/01/06 11:05:54;;;;;;;52.63;30.27;;;2.20;28.70;;;;;;8235253;28;21772;-81
2024/01/06 11:10:09;;;;;;;55.90;33.00;;;2.20;28.70;;;;;;8243443;28;20188;-80
2024/01/06 11:14:33;;;;;;;60.13;34.47;;;2.20;27.20;;;;;;8248499;28;20191;-81
2024/01/06 11:18:35;;;;;;;57.87;32.60;;;2.20;26.30;;;;;;8246167;28;20215;-81
2024/01/06 11:22:39;;;;;;;52.70;31.80;;;2.20;28.00;;;;;;8238693;28;20261;-80
2024/01/06 11:26:45;;;;;;;48.70;29.80;;;2.20;27.30;;;;;;8257948;28;20218;-81
2024/01/06 11:30:46;;;;;;;46.00;29.20;;;2.20;24.80;;;;;;8240956;28;20188;-81
2024/01/06 11:34:52;;;;;;;67.10;36.87;;;2.20;24.80;;;;;;8284294;28;20219;-80
2024/01/06 11:38:53;;;;;;;57.83;35.27;;;2.10;25.60;;;;;;8276119;28;20196;-79
2024/01/06 11:42:58;;;;;;;64.50;37.83;;;2.20;24.40;;;;;;8295680;28;20681;-80
2024/01/06 11:46:59;;;;;;;57.80;34.90;;;2.20;24.50;;;;;;8252179;28;20184;-79
2024/01/06 11:51:04;;;;;;;59.70;37.30;;;2.20;22.70;;;;;;8262695;28;20199;-79
2024/01/06 11:55:11;;;;;;;58.13;33.73;;;2.20;22.80;;;;;;8234145;28;21064;-80
2024/01/06 11:59:12;;;;;;;56.10;33.37;;;2.20;22.10;;;;;;8261019;28;20247;-79
2024/01/06 12:03:16;;;;;;;65.13;38.13;;;2.20;36.10;;;;;;8257276;28;20203;-79
2024/01/06 12:07:19;;;;;;;81.13;42.27;;;2.20;21.80;;;;;;8237402;28;20199;-81
2024/01/06 12:11:20;;;;;;;55.97;33.77;;;2.20;21.00;;;;;;8236361;28;20181;-80
2024/01/06 12:15:21;;;;;;;73.30;39.37;;;2.10;20.80;;;;;;8230597;28;20234;-81
2024/01/06 12:19:22;;;;;;;54.30;31.30;;;2.10;21.80;;;;;;8238118;28;20200;-81
2024/01/06 12:23:29;;;;;;;55.03;31.30;;;2.00;22.40;;;;;;8250083;28;20341;-81
2024/01/06 12:27:33;;;;;;;58.00;34.20;;;2.00;21.40;;;;;;8233916;28;20220;-81
2024/01/06 12:31:34;;;;;;;73.43;39.93;;;2.00;21.30;;;;;;8239550;28;20437;-81
2024/01/06 12:35:37;;;;;;;57.27;32.70;;;2.00;22.30;;;;;;8238498;28;20196;-81
2024/01/06 12:39:38;;;;;;;57.90;34.03;;;2.00;21.90;;;;;;8256487;28;20187;-80
2024/01/06 12:43:39;;;;;;;55.90;32.93;;;1.90;22.60;;;;;;8239926;28;20262;-81
2024/01/06 12:47:42;;;;;;;60.07;35.23;;;2.00;23.60;;;;;;8245339;28;20196;-80
2024/01/06 12:51:42;;;;;;;65.03;35.53;;;1.90;24.80;;;;;;8245402;28;20443;-81
2024/01/06 12:55:44;;;;;;;57.87;33.90;;;1.90;26.20;;;;;;8238669;28;20212;-81
2024/01/06 12:59:45;;;;;;;52.93;30.70;;;1.80;26.10;;;;;;8237617;28;20188;-81
2024/01/06 13:03:46;;;;;;;62.70;34.30;;;1.70;27.30;;;;;;8243317;28;20200;-81
2024/01/06 13:07:46;;;;;;;63.33;32.87;;;1.60;29.50;;;;;;8242730;28;20187;-81
2024/01/06 13:11:47;;;;;;;61.73;35.40;;;1.60;33.90;;;;;;8240753;28;20188;-80
2024/01/06 13:15:48;;;;;;;65.03;35.80;;;1.50;36.70;;;;;;8239825;28;20215;-82
2024/01/06 13:19:49;;;;;;;50.60;30.73;;;1.50;40.50;;;;;;8240889;28;20184;-79
2024/01/06 13:23:50;;;;;;;51.87;30.33;;;1.40;41.90;;;;;;8241533;28;20211;-79
2024/01/06 13:27:51;;;;;;;51.20;29.57;;;1.40;43.40;;;;;;8248661;28;20476;-79
2024/01/06 13:31:52;;;;;;;56.40;30.80;;;1.30;48.50;;;;;;8250006;28;20187;-80
2024/01/06 13:35:54;;;;;;;57.73;30.47;;;1.30;52.80;;;;;;8250355;28;20628;-81
2024/01/06 13:39:55;;;;;;;50.43;30.23;;;1.30;55.60;;;;;;8244189;28;20192;-81
2024/01/06 13:43:55;;;;;;;50.20;29.20;;;1.20;60.70;;;;;;8253525;28;20247;-79
2024/01/06 13:47:57;;;;;;;51.20;31.57;;;1.20;62.70;;;;;;8267059;28;20199;-81
2024/01/06 13:52:01;;;;;;;82.77;46.17;;;1.20;63.20;;;;;;8263199;28;20368;-81
2024/01/06 13:56:02;;;;;;;75.20;40.83;;;1.20;70.10;;;;;;8291615;28;20199;-81
2024/01/06 14:00:04;;;;;;;60.00;34.67;;;1.10;72.10;;;;;;8276896;28;20169;-81
2024/01/06 14:04:07;;;;;;;56.30;33.67;;;1.10;76.00;;;;;;8239822;28;20207;-81
2024/01/06 14:08:09;;;;;;;58.43;35.13;;;1.00;73.30;;;;;;8242407;28;20195;-81
2024/01/06 14:12:10;;;;;;;62.40;34.80;;;1.00;67.60;;;;;;8259167;28;20223;-81
2024/01/06 14:16:11;;;;;;;53.47;33.33;;;1.00;68.10;;;;;;8224722;28;20239;-80
2024/01/06 14:20:12;;;;;;;59.30;32.83;;;0.90;68.80;;;;;;8254181;28;20275;-80
2024/01/06 14:24:23;;;;;;;55.40;31.90;;;0.90;62.60;;;;;;8244740;28;20192;-80
2024/01/06 14:28:27;;;;;;;73.77;41.73;;;0.90;58.60;;;;;;8237150;28;20360;-81
2024/01/06 14:32:29;;;;;;;62.73;33.90;;;0.80;63.30;;;;;;8241217;28;20207;-80
2024/01/06 14:36:29;;;;;;;72.00;41.90;;;0.80;65.80;;;;;;8239160;28;20216;-80
2024/01/06 14:40:31;;;;;;;72.67;38.13;;;0.80;68.10;;;;;;8237998;28;20198;-81
2024/01/06 14:44:41;;;;;;;65.90;34.70;;;0.70;71.70;;;;;;8255844;28;20199;-79
2024/01/06 14:48:52;;;;;;;58.07;31.83;;;0.70;74.50;;;;;;8238090;28;20192;-80
2024/01/06 14:52:53;;;;;;;52.30;30.20;;;0.70;69.80;;;;;;8236622;28;20196;-80
2024/01/06 14:56:54;;;;;;;46.37;26.93;;;0.70;70.20;;;;;;8240506;28;20302;-80
2024/01/06 15:00:55;;;;;;;67.10;34.63;;;0.70;69.90;;;;;;8238152;28;20246;-83
2024/01/06 15:04:59;;;;;;;58.83;32.57;;;0.60;69.90;;;;;;8256579;28;20196;-81
2024/01/06 15:09:01;;;;;;;47.93;28.83;;;0.60;73.50;;;;;;8252927;28;20212;-80
2024/01/06 15:13:05;;;;;;;54.93;31.37;;;0.60;83.30;;;;;;8241137;28;20191;-79
2024/01/06 15:17:10;;;;;;;58.13;33.40;;;0.50;86.80;;;;;;8235953;28;20219;-80
2024/01/06 15:21:12;;;;;;;58.27;32.07;;;0.50;84.30;;;;;;8262111;28;20187;-80
2024/01/06 15:25:13;;;;;;;58.07;32.70;;;0.50;89.50;;;;;;8235139;28;20194;-80
2024/01/06 15:29:14;;;;;;;56.03;29.83;;;0.50;87.10;;;;;;8256757;28;20200;-81
2024/01/06 15:33:18;;;;;;;66.90;32.93;;;0.50;78.20;;;;;;8251775;28;20746;-81
2024/01/06 15:37:19;;;;;;;88.17;40.47;;;0.40;71.30;;;;;;8255389;28;20220;-82
2024/01/06 15:41:19;;;;;;;67.40;35.00;;;0.40;75.20;;;;;;8250971;28;20277;-81
2024/01/06 15:45:20;;;;;;;83.13;39.30;;;0.40;73.10;;;;;;8251304;28;20191;-81
2024/01/06 15:49:21;;;;;;;66.87;34.07;;;0.40;80.90;;;;;;8233762;28;20255;-81
2024/01/06 15:53:22;;;;;;;63.30;31.43;;;0.30;78.30;;;;;;8232856;28;20222;-81
2024/01/06 15:57:23;;;;;;;66.50;35.27;;;0.30;85.10;;;;;;8231368;28;20226;-81
2024/01/06 16:01:24;;;;;;;59.80;31.53;;;0.30;85.80;;;;;;8232706;28;20223;-80
2024/01/06 16:05:25;;;;;;;62.53;33.00;;;0.30;89.00;;;;;;8227188;28;20208;-81
2024/01/06 16:09:28;;;;;;;56.27;29.40;;;0.20;90.10;;;;;;8236302;28;20199;-81
2024/01/06 16:13:29;;;;;;;56.70;28.33;;;0.20;90.80;;;;;;8239002;28;20194;-81
2024/01/06 16:17:36;;;;;;;57.23;29.77;;;0.20;88.30;;;;;;8246496;28;20323;-81
2024/01/06 16:21:40;;;;;;;56.30;30.53;;;0.20;93.30;;;;;;8231713;28;20187;-82
2024/01/06 16:25:41;;;;;;;54.33;29.60;;;0.10;96.00;;;;;;8247576;28;20299;-82
2024/01/06 16:29:42;;;;;;;73.30;36.83;;;0.10;99.90;;;;;;8218855;28;20221;-82
2024/01/06 16:33:43;;;;;;;69.40;35.83;;;0.10;99.90;;;;;;8267292;28;20283;-81
2024/01/06 16:37:43;;;;;;;53.73;29.90;;;0.10;99.90;;;;;;8294716;28;20496;-82
2024/01/06 16:41:44;;;;;;;60.93;33.23;;;0.10;99.90;;;;;;8276810;28;20267;-82
2024/01/06 16:45:46;;;;;;;57.00;29.70;;;0.00;99.90;;;;;;8255179;28;20199;-81
2024/01/06 16:49:46;;;;;;;52.43;28.17;;;0.00;99.90;;;;;;8255194;28;20246;-81
2024/01/06 16:53:49;;;;;;;46.20;27.83;;;0.00;99.90;;;;;;8247142;28;20185;-81
2024/01/06 16:57:57;;;;;;;54.20;30.13;;;0.00;99.90;;;;;;8240587;28;20219;-81
2024/01/06 17:02:00;;;;;;;58.17;31.43;;;-0.10;99.90;;;;;;8251722;28;20282;-81
2024/01/06 17:06:01;;;;;;;63.90;31.03;;;-0.10;99.90;;;;;;8247679;28;20283;-81
2024/01/06 17:10:03;;;;;;;51.93;28.13;;;-0.10;99.90;;;;;;8233021;28;20188;-81
2024/01/06 17:14:04;;;;;;;60.03;29.53;;;-0.20;99.90;;;;;;8246637;28;20195;-81
2024/01/06 17:18:07;;;;;;;70.43;35.03;;;-0.20;99.90;;;;;;8249590;28;20218;-81
2024/01/06 17:22:08;;;;;;;50.60;28.60;;;-0.20;99.90;;;;;;8236628;28;20346;-80
2024/01/06 17:26:09;;;;;;;52.13;29.20;;;-0.20;99.90;;;;;;8253319;28;20187;-81
2024/01/06 17:30:10;;;;;;;58.37;30.23;;;-0.20;99.90;;;;;;8235683;28;20191;-80
2024/01/06 17:34:11;;;;;;;51.27;28.80;;;-0.30;99.90;;;;;;8234623;28;21215;-81
2024/01/06 17:38:18;;;;;;;55.37;30.07;;;-0.40;99.90;;;;;;8247220;28;20821;-81
2024/01/06 17:42:19;;;;;;;47.53;27.10;;;-0.40;99.90;;;;;;8255900;28;20234;-81
2024/01/06 17:46:21;;;;;;;46.53;27.37;;;-0.40;99.90;;;;;;8256033;28;20238;-80
2024/01/06 17:50:24;;;;;;;46.80;25.73;;;-0.40;99.90;;;;;;8229982;28;20279;-81
2024/01/06 17:54:27;;;;;;;47.83;25.93;;;-0.40;99.90;;;;;;8236638;28;20189;-81
2024/01/06 17:58:28;;;;;;;41.20;25.03;;;-0.40;99.90;;;;;;8254672;28;20235;-79
2024/01/06 18:02:29;;;;;;;42.00;27.57;;;-0.40;99.90;;;;;;8253881;28;20199;-78
2024/01/06 18:06:30;;;;;;;41.03;25.37;;;-0.50;99.90;;;;;;8236771;28;20270;-80
2024/01/06 18:10:31;;;;;;;49.23;27.13;;;-0.50;99.90;;;;;;8243673;28;20498;-78
2024/01/06 18:14:35;;;;;;;54.47;29.00;;;-0.50;99.90;;;;;;8253137;28;20242;-79
2024/01/06 18:18:36;;;;;;;34.33;22.20;;;-0.50;99.90;;;;;;8253564;28;20222;-79
2024/01/06 18:22:37;;;;;;;36.07;21.87;;;-0.50;99.90;;;;;;8251089;28;20184;-79
2024/01/06 18:26:40;;;;;;;34.77;22.17;;;-0.50;99.90;;;;;;8245847;28;20460;-79
2024/01/06 18:30:41;;;;;;;35.80;21.43;;;-0.50;99.90;;;;;;8232931;28;20191;-80
2024/01/06 18:34:45;;;;;;;36.20;20.03;;;-0.50;99.90;;;;;;8251775;28;20189;-78
2024/01/06 18:38:46;;;;;;;34.40;20.43;;;-0.60;99.90;;;;;;8230874;28;20209;-80
2024/01/06 18:42:49;;;;;;;32.67;20.40;;;-0.60;99.90;;;;;;8235696;28;20295;-80
2024/01/06 18:46:50;;;;;;;63.10;29.33;;;-0.60;99.90;;;;;;8237843;28;20497;-79
2024/01/06 18:50:51;;;;;;;51.30;28.70;;;-0.70;99.90;;;;;;8256869;28;20868;-80
2024/01/06 18:54:52;;;;;;;39.83;23.50;;;-0.70;99.90;;;;;;8233887;28;20759;-82
2024/01/06 18:58:53;;;;;;;43.07;23.27;;;-0.70;99.90;;;;;;8250633;28;20219;-82
2024/01/06 19:02:54;;;;;;;62.40;28.87;;;-0.70;99.90;;;;;;8234105;28;20207;-80
2024/01/06 19:06:55;;;;;;;39.43;21.20;;;-0.70;99.90;;;;;;8234785;28;20181;-81
2024/01/06 19:10:56;;;;;;;46.43;24.70;;;-0.70;99.90;;;;;;8239706;28;20186;-81
2024/01/06 19:14:57;;;;;;;45.10;23.30;;;-0.70;99.90;;;;;;8238575;28;20280;-81
2024/01/06 19:18:57;;;;;;;60.43;28.40;;;-0.70;99.90;;;;;;8283706;28;20495;-81
2024/01/06 19:23:02;;;;;;;69.17;31.80;;;-0.70;99.90;;;;;;8276478;28;20196;-82
2024/01/06 19:27:03;;;;;;;45.73;24.03;;;-0.70;99.90;;;;;;8252825;28;20229;-81
2024/01/06 19:31:06;;;;;;;60.97;29.50;;;-0.70;99.90;;;;;;8236932;28;20206;-82
2024/01/06 19:35:07;;;;;;;69.57;28.80;;;-0.70;99.90;;;;;;8234229;28;20201;-82
2024/01/06 19:39:08;;;;;;;56.97;27.43;;;-0.80;99.90;;;;;;8251510;28;20226;-82
2024/01/06 19:43:09;;;;;;;52.07;29.10;;;-0.80;99.90;;;;;;8247916;28;20221;-82
2024/01/06 19:47:12;;;;;;;41.63;20.50;;;-0.80;99.90;;;;;;8232968;28;20190;-81
2024/01/06 19:51:15;;;;;;;38.57;21.13;;;-0.80;99.90;;;;;;8237319;28;20278;-82
2024/01/06 19:55:16;;;;;;;46.03;22.60;;;-0.80;97.10;;;;;;8246808;28;20547;-83
2024/01/06 19:59:17;;;;;;;48.37;21.27;;;-0.80;91.70;;;;;;8234236;28;20222;-81
2024/01/06 20:03:18;;;;;;;84.50;31.63;;;-0.80;81.60;;;;;;8246199;28;20233;-82
2024/01/06 20:07:26;;;;;;;33.97;19.83;;;-0.80;75.90;;;;;;8245962;28;20381;-81
2024/01/06 20:11:27;;;;;;;33.33;17.83;;;-0.80;76.10;;;;;;8248443;28;20194;-82
2024/01/06 20:15:28;;;;;;;35.87;20.37;;;-0.80;77.00;;;;;;8229695;28;20283;-82
2024/01/06 20:19:28;;;;;;;32.63;17.43;;;-0.80;62.20;;;;;;8232931;28;20232;-82
2024/01/06 20:23:29;;;;;;;30.47;16.23;;;-0.80;54.60;;;;;;8263450;28;20241;-81
2024/01/06 20:27:30;;;;;;;30.50;16.87;;;-0.90;52.80;;;;;;8232480;28;20195;-81
2024/01/06 20:31:31;;;;;;;30.67;15.70;;;-0.90;48.90;;;;;;8232602;28;20194;-82
2024/01/06 20:35:33;;;;;;;38.37;19.30;;;-0.80;42.10;;;;;;8234446;28;20193;-81
2024/01/06 20:39:34;;;;;;;45.73;24.43;;;-0.80;38.00;;;;;;8231246;28;20249;-82